Time;durP1;ratioP1;P1;durP2;ratioP2;P2;SDS_P1;SDS_P2;PMS_P1;PMS_P2;Temp;Humidity;BMP_temperature;BMP_pressure;BME280_temperature;BME280_humidity;BME280_pressure;Samples;Min_cycle;Max_cycle;Signal;HPM_P1;HPM_P2
2022/08/17 00:00:53;;;;;;;32.58;19.30;;;;;;;19.27;100.00;101108.69;5019575;28;20063;-76
2022/08/17 00:03:34;;;;;;;31.75;19.23;;;;;;;19.22;100.00;101102.81;5021720;28;20389;-75
2022/08/17 00:06:09;;;;;;;33.25;20.45;;;;;;;19.19;100.00;101105.75;5023581;28;20507;-76
2022/08/17 00:08:41;;;;;;;33.85;20.50;;;;;;;19.17;100.00;101100.50;5019811;28;20588;-76
2022/08/17 00:11:13;;;;;;;;;;;;;;;19.16;100.00;101103.31;5003580;28;20025;-76
2022/08/17 00:13:41;;;;;;;;;;;;;;;19.12;100.00;101105.38;4998693;28;19929;-76
2022/08/17 00:16:17;;;;;;;;;;;;;;;19.09;100.00;101105.59;5019142;28;20722;-76
2022/08/17 00:18:43;;;;;;;;;;;;;;;19.06;100.00;101101.34;5001235;28;19974;-76
2022/08/17 00:21:09;;;;;;;;;;;;;;;19.05;100.00;101105.00;5021160;28;20671;-75
2022/08/17 00:23:34;;;;;;;;;;;;;;;19.05;100.00;101104.13;5004295;28;21495;-76
2022/08/17 00:26:00;;;;;;;;;;;;;;;19.04;100.00;101100.59;5002136;28;19925;-76
2022/08/17 00:28:26;;;;;;;;;;;;;;;19.06;100.00;101114.75;4999559;28;20011;-76
2022/08/17 00:30:54;;;;;;;;;;;;;;;19.06;100.00;101106.69;5018371;28;19925;-76
2022/08/17 00:33:29;;;;;;;;;;;;;;;19.07;100.00;101107.56;5006372;28;19947;-75
2022/08/17 00:35:54;;;;;;;;;;;;;;;19.04;100.00;101103.28;4997553;28;19924;-76
2022/08/17 00:38:20;;;;;;;;;;;;;;;19.04;100.00;101108.66;5000701;28;19921;-75
2022/08/17 00:40:47;;;;;;;;;;;;;;;19.03;100.00;101098.91;4997761;28;20879;-76
2022/08/17 00:43:19;;;;;;;;;;;;;;;19.04;100.00;101103.28;5015253;28;19925;-75
2022/08/17 00:45:45;;;;;;;;;;;;;;;19.05;100.00;101109.50;5018545;28;19925;-76
2022/08/17 00:48:11;;;;;;;;;;;;;;;19.07;100.00;101118.28;5020180;28;19925;-76
2022/08/17 00:50:36;;;;;;;;;;;;;;;19.08;100.00;101107.44;5018743;28;19978;-76
2022/08/17 00:53:02;;;;;;;;;;;;;;;19.09;100.00;101108.28;4980626;28;19964;-75
2022/08/17 00:55:28;;;;;;;;;;;;;;;19.07;100.00;101108.41;5022194;28;19921;-75
2022/08/17 00:57:55;;;;;;;;;;;;;;;19.05;100.00;101105.00;5000588;28;19974;-76
2022/08/17 01:00:25;;;;;;;;;;;;;;;19.03;100.00;101106.94;4995719;28;19932;-76
2022/08/17 01:02:53;;;;;;;;;;;;;;;19.02;100.00;101096.28;5017955;28;20401;-76
2022/08/17 01:05:19;;;;;;;;;;;;;;;19.03;100.00;101101.59;5018113;28;19921;-76
2022/08/17 01:07:45;;;;;;;;;;;;;;;19.03;100.00;101101.59;5019229;28;20314;-76
2022/08/17 01:10:11;;;;;;;;;;;;;;;19.01;100.00;101116.88;5031562;28;19925;-75
2022/08/17 01:12:36;;;;;;;;;;;;;;;18.99;100.00;101117.03;5003820;28;19931;-75
2022/08/17 01:15:03;;;;;;;;;;;;;;;18.99;100.00;101126.88;5026582;28;19920;-76
2022/08/17 01:17:28;;;;;;;;;;;;;;;19.01;100.00;101114.22;4987980;28;19925;-75
2022/08/17 01:19:56;;;;;;;;;;;;;;;19.02;100.00;101115.06;5032180;28;19932;-76
2022/08/17 01:22:22;;;;;;;;;;;;;;;19.01;100.00;101103.47;5021884;28;19983;-76
2022/08/17 01:24:59;;;;;;;;;;;;;;;18.99;100.00;101095.56;5031478;28;20010;-76
2022/08/17 01:27:25;;;;;;;;;;;;;;;18.98;100.00;101095.69;5024208;28;19925;-76
2022/08/17 01:29:52;;;;;;;;;;;;;;;18.98;100.00;101095.69;5031946;28;20301;-76
2022/08/17 01:32:18;;;;;;;;;;;;;;;18.94;100.00;101097.75;5023668;28;20268;-76
2022/08/17 01:34:44;;;;;;;;;;;;;;;18.88;100.00;101092.84;4994704;28;19931;-76
2022/08/17 01:37:10;;;;;;;;;;;;;;;18.84;100.00;101097.59;5024489;28;19925;-76
2022/08/17 01:39:37;;;;;;;;;;;;;;;18.81;100.00;101100.53;5033282;28;19925;-77
2022/08/17 01:42:08;;;;;;;;;;;;;;;18.78;100.00;101098.06;5035644;28;19939;-76
2022/08/17 01:44:34;;;;;;;;;;;;;;;18.75;100.00;101113.53;5019936;28;19933;-76
2022/08/17 01:46:59;;;;;;;;;;;;;;;18.68;100.00;101103.28;5023993;28;19967;-77
2022/08/17 01:49:24;;;;;;;;;;;;;;;18.67;100.00;101111.44;5026070;28;20399;-76
2022/08/17 01:51:50;;;;;;;;;;;;;;;18.67;100.00;101108.75;5027240;28;19935;-76
2022/08/17 01:54:16;;;;;;;;;;;;;;;18.64;100.00;101098.25;5027251;28;20018;-77
2022/08/17 01:56:45;;;;;;;;;;;;;;;18.60;100.00;101097.66;5009392;28;19929;-76
2022/08/17 01:59:11;;;;;;;;;;;;;;;18.55;100.00;101098.00;5026904;28;19920;-76
2022/08/17 02:01:36;;;;;;;;;;;;;;;18.52;100.00;101098.22;5013197;28;19987;-76
2022/08/17 02:04:02;;;;;;;;;;;;;;;18.49;100.00;101098.47;5029587;28;19921;-76
2022/08/17 02:06:28;;;;;;;;;;;;;;;18.46;100.00;101096.00;5037051;28;19921;-76
2022/08/17 02:08:54;;;;;;;;;;;;;;;18.40;100.00;101091.09;5017678;28;19933;-77
2022/08/17 02:11:20;;;;;;;;;;;;;;;18.37;100.00;101094.00;5032935;28;19936;-77
2022/08/17 02:13:47;;;;;;;;;;;;;;;18.37;100.00;101091.34;5033327;28;19928;-77
2022/08/17 02:16:13;;;;;;;;;;;;;;;18.34;100.00;101094.25;5033514;28;19925;-77
2022/08/17 02:18:38;;;;;;;;;;;;;;;18.30;100.00;101093.63;5033761;28;20367;-77
2022/08/17 02:21:04;;;;;;;;;;;;;;;18.29;100.00;101095.44;5030864;28;19929;-77
2022/08/17 02:23:31;;;;;;;;;;;;;;;18.30;100.00;101104.34;5025932;28;19974;-77
2022/08/17 02:25:57;;;;;;;;;;;;;;;18.30;100.00;101104.34;5030145;28;19925;-76
2022/08/17 02:28:27;;;;;;;;;;;;;;;18.25;100.00;101095.78;5027338;28;19932;-75
2022/08/17 02:30:52;;;;;;;;;;;;;;;18.25;100.00;101095.78;5028412;28;19921;-76
2022/08/17 02:33:18;;;;;;;;;;;;;;;18.26;100.00;101098.34;5031483;28;20407;-76
2022/08/17 02:35:43;;;;;;;;;;;;;;;18.26;100.00;101100.16;5028588;28;19968;-75
2022/08/17 02:38:09;;;;;;;;;;;;;;;18.27;100.00;101094.72;5031536;28;21396;-76
2022/08/17 02:40:35;;;;;;;;;;;;;;;18.30;100.00;101099.81;5015633;28;19931;-77
2022/08/17 02:43:00;;;;;;;;;;;;;;;18.32;100.00;101097.03;5031379;28;19924;-77
2022/08/17 02:45:26;;;;;;;;;;;;;;;18.31;100.00;101103.38;5035407;28;19968;-77
2022/08/17 02:47:51;;;;;;;;;;;;;;;18.29;100.00;101103.47;5024441;28;19925;-77
2022/08/17 02:50:18;;;;;;;;;;;;;;;18.30;100.00;101099.81;5027009;28;19933;-77
2022/08/17 02:52:44;;;;;;;;;;;;;;;18.31;100.00;101092.66;5009345;28;19968;-77
2022/08/17 02:55:12;;;;;;;;;;;;;;;18.30;100.00;101091.78;5031180;28;19920;-76
2022/08/17 02:57:37;;;;;;;;;;;;;;;18.32;100.00;101087.16;5017954;28;20038;-76
2022/08/17 03:00:23;;;;;;;;;;;;;;;18.30;100.00;101091.78;5012587;28;20352;-76
2022/08/17 03:02:49;;;;;;;;;;;;;;;18.29;100.00;101086.53;5015546;28;19925;-76
2022/08/17 03:05:15;;;;;;;;;;;;;;;18.28;100.00;101080.34;5031777;28;20034;-76
2022/08/17 03:07:41;;;;;;;;;;;;;;;18.28;100.00;101082.16;5034338;28;20406;-76
2022/08/17 03:10:07;;;;;;;;;;;;;;;18.27;100.00;101083.13;5029976;28;19920;-76
2022/08/17 03:12:34;;;;;;;;;;;;;;;18.24;100.00;101075.31;5015998;28;19925;-76
2022/08/17 03:15:29;;;;;;;;;;;;;;;18.21;100.00;101071.03;5031572;28;19925;-76
2022/08/17 03:17:55;;;;;;;;;;;;;;;18.21;100.00;101079.09;5023244;28;19925;-76
2022/08/17 03:20:21;;;;;;;;;;;;;;;18.22;100.00;101083.47;5018098;28;19929;-76
2022/08/17 03:22:47;;;;;;;;;;;;;;;18.22;100.00;101083.47;5029759;28;19928;-76
2022/08/17 03:25:14;;;;;;;;;;;;;;;18.21;100.00;101088.94;5037320;28;19920;-76
2022/08/17 03:27:39;;;;;;;;;;;;;;;18.19;100.00;101089.03;5032913;28;19925;-77
2022/08/17 03:30:05;;;;;;;;;;;;;;;18.17;100.00;101091.84;5025569;28;19925;-77
2022/08/17 03:32:31;;;;;;;;;;;;;;;18.15;100.00;101098.28;5038604;28;19963;-76
2022/08/17 03:34:59;;;;;;;;;;;;;;;18.15;100.00;101098.28;5017802;28;19920;-76
2022/08/17 03:37:25;;;;;;;;;;;;;;;18.12;100.00;101098.50;5035142;28;20085;-76
2022/08/17 03:39:50;;;;;;;;;;;;;;;18.12;100.00;101106.53;5017200;28;20375;-76
2022/08/17 03:42:18;;;;;;;;;;;;;;;18.10;100.00;101103.13;5036772;28;19966;-76
2022/08/17 03:44:47;;;;;;;;;;;;;;;18.05;100.00;101098.94;5026431;28;19933;-78
2022/08/17 03:58:09;;;;;;;;;;;;;;;17.85;100.00;101096.84;5027789;28;19938;-78
2022/08/17 04:00:35;;;;;;;;;;;;;;;17.84;100.00;101097.81;5035025;28;20587;-78
2022/08/17 04:03:00;;;;;;;;;;;;;;;17.84;100.00;101092.44;5022093;28;19967;-78
2022/08/17 04:05:26;;;;;;;;;;;;;;;17.84;100.00;101105.84;5027187;28;19925;-77
2022/08/17 04:07:51;;;;;;;;;;;;;;;17.85;100.00;101105.75;5025793;28;19927;-75
2022/08/17 04:10:16;;;;;;;;;;;;;;;17.86;100.00;101111.97;5021669;28;20302;-75
2022/08/17 04:12:48;;;;;;;;;;;;;;;17.87;100.00;101113.66;5010420;28;19925;-76
2022/08/17 04:15:13;;;;;;;;;;;;;;;17.90;100.00;101113.44;5003038;28;19924;-76
2022/08/17 04:17:39;;;;;;;;;;;;;;;17.89;100.00;101104.56;5000845;28;20344;-76
2022/08/17 04:20:05;;;;;;;;;;;;;;;17.91;100.00;101096.41;5020944;28;19929;-76
2022/08/17 04:22:30;;;;;;;;;;;;;;;17.92;100.00;101106.13;5021151;28;19933;-76
2022/08/17 04:24:55;;;;;;;;;;;;;;;17.92;100.00;101106.13;5019434;28;19975;-76
2022/08/17 04:27:21;;;;;;;;;;;;;;;17.96;100.00;101104.09;4998156;28;19964;-75
2022/08/17 04:29:46;;;;;;;;;;;;;;;17.98;100.00;101107.53;5005759;28;19940;-77
2022/08/17 04:32:14;;;;;;;;;;;;;;;18.01;100.00;101116.19;5019762;28;19932;-77
2022/08/17 04:34:40;;;;;;;;;;;;;;;18.03;100.00;101122.28;5018887;28;19924;-77
2022/08/17 04:37:06;;;;;;;;;;;;;;;18.04;100.00;101115.97;5019401;28;20402;-77
2022/08/17 04:39:31;;;;;;;;;;;;;;;18.05;100.00;101119.53;5022036;28;20453;-77
2022/08/17 04:42:06;;;;;;;;;;;;;;;18.08;100.00;101126.50;5020533;28;19917;-76
2022/08/17 04:44:32;;;;;;;;;;;;;;;18.04;100.00;101121.31;5002529;28;19921;-77
2022/08/17 04:46:58;;;;;;;;;;;;;;;18.02;100.00;101122.41;5016820;28;19964;-77
2022/08/17 04:49:24;;;;;;;;;;;;;;;17.98;100.00;101121.75;5022374;28;19928;-77
2022/08/17 04:51:49;;;;;;;;;;;;;;;17.96;100.00;101126.38;5018226;28;19920;-77
2022/08/17 04:54:16;;;;;;;;;;;;;;;17.91;100.00;101121.38;5019403;28;20124;-77
2022/08/17 04:56:42;;;;;;;;;;;;;;;17.90;100.00;101124.16;4997469;28;19925;-76
2022/08/17 04:59:11;;;;;;;;;;;;;;;17.87;100.00;101119.88;5018587;28;20284;-77
2022/08/17 05:01:37;;;;;;;;;;;;;;;17.86;100.00;101128.03;5007659;28;20287;-77
2022/08/17 05:04:04;;;;;;;;;;;;;;;17.86;100.00;101128.88;5038947;28;20058;-77
2022/08/17 05:06:30;;;;;;;;;;;;;;;17.84;100.00;101127.25;5040628;28;19925;-77
2022/08/17 05:08:56;;;;;;;;;;;;;;;17.84;100.00;101127.25;5041570;28;19974;-77
2022/08/17 05:11:22;;;;;;;;;;;;;;;17.86;100.00;101122.69;5041920;28;19928;-77
2022/08/17 05:13:48;;;;;;;;;;;;;;;17.87;100.00;101135.09;5041154;28;19925;-77
2022/08/17 05:16:14;;;;;;;;;;;;;;;17.88;100.00;101147.50;5040986;28;20481;-77
2022/08/17 05:18:39;;;;;;;;;;;;;;;17.88;100.00;101169.78;5040242;28;19951;-76
2022/08/17 05:21:05;;;;;;;;;;;;;;;17.86;100.00;101186.94;5041613;28;19925;-75
2022/08/17 05:23:31;;;;;;;;;;;;;;;17.85;100.00;101180.72;5020676;28;20264;-75
2022/08/17 05:25:57;;;;;;;;;;;;;;;17.83;100.00;101181.78;5021643;28;19935;-76
2022/08/17 05:28:23;;;;;;;;;;;;;;;17.83;100.00;101174.63;5021472;28;19921;-76
2022/08/17 05:30:49;;;;;;;;;;;;;;;17.83;100.00;101182.66;5035852;28;19927;-77
2022/08/17 05:33:16;;;;;;;;;;;;;;;17.88;100.00;101196.56;5037814;28;19924;-76
2022/08/17 05:35:43;;;;;;;;;;;;;;;17.89;100.00;101192.06;5035332;28;20375;-77
2022/08/17 05:38:09;;;;;;;;;;;;;;;17.90;100.00;101193.78;5038828;28;19928;-76
2022/08/17 05:40:35;;;;;;;;;;;;;;;17.90;100.00;101189.28;5040556;28;19925;-75
2022/08/17 05:43:26;;;;;;;;;;;;;;;17.91;100.00;101190.13;5042043;28;19963;-76
2022/08/17 05:45:52;;;;;;;;;;;;;;;17.92;100.00;101191.84;5034375;28;19924;-80
2022/08/17 05:48:17;;;;;;;;;;;;;;;17.93;100.00;101196.25;5040443;28;19925;-78
2022/08/17 05:51:01;;;;;;;;;;;;;;;17.95;100.00;101191.63;5038094;28;19928;-78
2022/08/17 05:53:29;;;;;;;;;;;;;;;18.00;100.00;101189.50;5038079;28;19931;-79
2022/08/17 05:55:55;;;;;;;;;;;;;;;18.05;100.00;101203.41;5014878;28;20015;-80
2022/08/17 05:58:23;;;;;;;;;;;;;;;18.10;100.00;101211.16;5040959;28;20755;-81
2022/08/17 06:01:09;;;;;;;;;;;;;;;18.13;100.00;101210.03;5031085;28;19921;-80
2022/08/17 06:03:40;;;;;;;;;;;;;;;18.18;100.00;101203.41;5021398;28;19928;-80
2022/08/17 06:06:06;;;;;;;;;;;;;;;18.22;100.00;101198.69;5039627;28;19925;-79
2022/08/17 06:08:50;;;;;;;;;;;;;;;18.25;100.00;101200.28;5041570;28;19974;-79
2022/08/17 06:11:21;;;;;;;;;;;;;;;18.27;100.00;101207.25;5038299;28;20008;-80
2022/08/17 06:13:47;;;;;;;;;;;;;;;18.29;100.00;101204.44;5021809;28;19920;-80
2022/08/17 06:16:13;;;;;;;;;;;;;;;18.31;100.00;101208.72;5036956;28;20182;-78
2022/08/17 06:18:49;;;;;;;;;;;;;;;18.32;100.00;101221.16;5040182;28;20400;-76
2022/08/17 06:21:16;;;;;;;;;;;;;;;18.31;100.00;101222.13;5039273;28;19925;-78
2022/08/17 06:23:49;;;;;;;;;;;;;;;18.34;100.00;101228.25;5039132;28;19931;-79
2022/08/17 06:26:19;;;;;;;;;;;;;;;18.39;100.00;101220.72;5042090;28;19966;-77
2022/08/17 06:28:51;;;;;;;;;;;;;;;18.40;100.00;101217.94;5040405;28;19924;-79
2022/08/17 06:31:21;;;;;;;;;;;;;;;18.43;100.00;101203.44;5051450;28;19924;-81
2022/08/17 06:33:47;;;;;;;;;;;;;;;18.42;100.00;101196.38;5051255;28;19944;-81
2022/08/17 06:36:25;;;;;;;;;;;;;;;18.43;100.00;101214.16;5039332;28;20012;-81
2022/08/17 06:38:54;;;;;;;;;;;;;;;18.45;100.00;101214.91;5006689;28;20370;-83
2022/08/17 06:41:19;;;;;;;;;;;;;;;18.45;100.00;101225.63;5042274;28;19924;-82
2022/08/17 06:43:49;;;;;;;;;;;;;;;18.46;100.00;101232.69;5035489;28;19924;-83
2022/08/17 06:46:24;;;;;;;;;;;;;;;18.48;100.00;101228.09;5037017;28;19956;-83
2022/08/17 06:49:20;;;;;;;;;;;;;;;18.47;100.00;101223.72;5036321;28;19921;-81
2022/08/17 06:51:45;;;;;;;;;;;;;;;18.48;100.00;101195.06;5023508;28;19932;-84
2022/08/17 06:54:19;;;;;;;;;;;;;;;18.48;100.00;101174.47;5036272;28;19960;-83
2022/08/17 06:56:52;;;;;;;;;;;;;;;18.47;100.00;101183.50;5030934;28;19920;-84
2022/08/17 06:59:18;;;;;;;;;;;;;;;18.45;100.00;101194.31;5020497;28;19927;-83
2022/08/17 07:01:44;;;;;;;;;;;;;;;18.46;100.00;101193.34;5024669;28;19951;-85
2022/08/17 07:04:18;;;;;;;;;;;;;;;18.47;100.00;101196.91;5017601;28;19925;-83
2022/08/17 07:06:48;;;;;;;;;;;;;;;18.48;100.00;101193.25;5015965;28;20337;-82
2022/08/17 07:09:15;;;;;;;;;;;;;;;18.50;100.00;101193.97;5017873;28;19921;-82
2022/08/17 07:11:54;;;;;;;;;;;;;;;18.54;100.00;101183.88;5019653;28;19931;-81
2022/08/17 07:14:21;;;;;;;;;;;;;;;18.58;100.00;101188.06;5018030;28;19921;-82
2022/08/17 07:16:50;;;;;;;;;;;;;;;18.57;100.00;101189.88;5022706;28;19925;-82
2022/08/17 07:19:16;;;;;;;;;;;;;;;18.57;100.00;101189.88;5007669;28;20339;-81
2022/08/17 07:21:48;;;;;;;;;;;;;;;18.57;100.00;101197.06;5020890;28;19992;-81
2022/08/17 07:24:34;;;;;;;;;;;;;;;18.59;100.00;101182.56;5004341;28;19963;-81
2022/08/17 07:27:04;;;;;;;;;;;;;;;18.59;100.00;101177.19;5019888;28;19921;-81
2022/08/17 07:29:32;;;;;;;;;;;;;;;18.62;100.00;101177.97;5020540;28;19928;-81
2022/08/17 07:31:57;;;;;;;;;;;;;;;18.66;100.00;101196.38;5010822;28;19921;-81
2022/08/17 07:34:23;;;;;;;;;;;;;;;18.67;100.00;101199.91;5000766;28;19947;-81
2022/08/17 07:36:55;;;;;;;;;;;;;;;18.71;100.00;101210.31;5011619;28;20010;-78
2022/08/17 07:39:25;;;;;;;;;;;;;;;18.75;100.00;101208.25;5014989;28;19921;-78
2022/08/17 07:41:50;;;;;;;;;;;;;;;18.78;100.00;101202.66;5016440;28;20372;-79
2022/08/17 07:44:16;;;;;;;;;;;;;;;18.82;100.00;101203.28;5001557;28;19921;-80
2022/08/17 07:49:36;;;;;;;;;;;;;;;18.84;100.00;101210.25;5018043;28;20010;-78
2022/08/17 07:52:04;;;;;;;;;;;;;;;18.82;100.00;101224.72;5021219;28;21388;-79
2022/08/17 07:54:31;;;;;;;;;;;;;;;18.84;100.00;101233.50;5003319;28;20018;-78
2022/08/17 07:56:59;;;;;;;;;;;;;;;18.86;100.00;101240.47;5019861;28;19921;-78
2022/08/17 07:59:29;;;;;;;;;;;;;;;18.88;100.00;101243.06;5021301;28;20391;-78
2022/08/17 08:01:55;;;;;;;;;;;;;;;18.91;100.00;101252.69;5023615;28;19933;-79
2022/08/17 08:04:39;;;;;;;;;;;;;;;18.94;100.00;101255.13;4997751;28;20387;-79
2022/08/17 08:07:20;;;;;;;;;;;;;;;18.97;100.00;101257.63;5001586;28;19967;-79
2022/08/17 08:09:58;;;;;;;;;;;;;;;18.98;100.00;101270.06;4996731;28;20040;-78
2022/08/17 08:12:37;;;;;;;;;;;;;;;18.97;100.00;101281.75;5017194;28;19964;-77
2022/08/17 08:15:20;;;;;;;;;;;;;;;18.93;100.00;101283.81;5008085;28;20040;-78
2022/08/17 08:17:56;;;;;;;;;;;;;;;18.96;100.00;101298.81;5011562;28;20006;-78
2022/08/17 08:20:24;;;;;;;;;;;;;;;19.00;100.00;101306.53;4992903;28;20000;-79
2022/08/17 08:23:04;;;;;;;;;;;;;;;19.04;100.00;101300.94;5006190;28;19924;-79
2022/08/17 08:25:47;;;;;;;;;;;;;;;19.06;100.00;101299.88;5000812;28;19925;-80
2022/08/17 08:28:32;;;;;;;;;;;;;;;19.07;100.00;101284.66;5004291;28;19928;-80
2022/08/17 08:31:27;;;;;;;;;;;;;;;19.09;100.00;101278.19;5023753;28;19933;-80
2022/08/17 08:33:59;;;;;;;;;;;;;;;19.09;100.00;101272.81;5003172;28;19921;-79
2022/08/17 08:36:25;;;;;;;;;;;;;;;19.10;100.00;101266.47;5007384;28;19964;-78
2022/08/17 08:39:01;;;;;;;;;;;;;;;19.12;100.00;101261.84;4993089;28;20020;-79
2022/08/17 08:41:32;;;;;;;;;;;;;;;19.12;100.00;101244.91;5024966;28;19921;-79
2022/08/17 08:44:02;;;;;;;;;;;;;;;19.12;100.00;101244.91;5031297;28;19922;-79
2022/08/17 08:46:46;;;;;;;;;;;;;;;19.14;100.00;101238.44;5007726;28;19925;-79
2022/08/17 08:49:35;;;;;;;;;;;;;;;19.14;100.00;101233.06;5014812;28;20292;-80
2022/08/17 08:52:01;;;;;;;;;;;;;;;19.13;100.00;101236.72;5002279;28;19971;-81
2022/08/17 08:54:37;;;;;;;;;;;;;;;19.10;100.00;101239.66;5004915;28;20298;-80
2022/08/17 08:57:03;;;;;;;;;;;;;;;19.05;100.00;101238.28;5002185;28;20462;-80
2022/08/17 08:59:45;;;;;;;;;;;;;;;19.02;100.00;101239.38;5026942;28;19967;-79
2022/08/17 09:02:29;;;;;;;;;;;;;;;19.00;100.00;101257.38;5010635;28;20098;-81
2022/08/17 09:04:59;;;;;;;;;;;;;;;18.99;100.00;101271.75;5020142;28;19984;-80
2022/08/17 09:07:48;;;;;;;;;;;;;;;18.99;100.00;101274.44;5017009;28;19917;-79
2022/08/17 09:10:16;;;;;;;;;;;;;;;18.97;100.00;101279.91;5006408;28;19961;-80
2022/08/17 09:12:52;;;;;;;;;;;;;;;18.93;100.00;101269.53;5015057;28;19921;-79
2022/08/17 09:15:26;;;;;;;;;;;;;;;18.91;100.00;101266.13;5017328;28;19980;-79
2022/08/17 09:17:56;;;;;;;;;;;;;;;18.88;100.00;101256.47;5018040;28;20063;-79
2022/08/17 09:20:54;;;;;;;;;;;;;;;18.86;100.00;101240.47;5002296;28;19936;-80
2022/08/17 09:23:31;;;;;;;;;;;;;;;18.86;100.00;101234.28;4984893;28;19925;-79
2022/08/17 09:26:15;;;;;;;;;;;;;;;18.86;100.00;101219.03;5019370;28;19932;-79
2022/08/17 09:28:48;;;;;;;;;;;;;;;18.88;100.00;101224.28;5019370;28;19925;-80
2022/08/17 09:31:15;;;;;;;;;;;;;;;18.91;100.00;101228.56;5019359;28;20170;-79
2022/08/17 09:33:42;;;;;;;;;;;;;;;18.90;100.00;101251.00;5001877;28;20429;-79
2022/08/17 09:36:10;;;;;;;;;;;;;;;18.89;100.00;101265.38;5018823;28;19921;-79
2022/08/17 09:38:54;;;;;;;;;;;;;;;18.84;100.00;101271.94;5001775;28;19924;-80
2022/08/17 09:41:24;;;;;;;;;;;;;;;18.80;100.00;101259.69;5018955;28;19928;-80
2022/08/17 09:43:52;;;;;;;;;;;;;;;18.81;100.00;101260.56;4986039;28;19954;-79
2022/08/17 09:46:21;;;;;;;;;;;;;;;18.76;100.00;101243.97;5017004;28;20004;-80
2022/08/17 09:48:56;;;;;;;;;;;;;;;18.74;100.00;101257.47;5016878;28;20462;-79
2022/08/17 09:51:32;;;;;;;;;;;;;;;18.77;100.00;101268.00;5016776;28;19996;-79
2022/08/17 09:53:57;;;;;;;;;;;;;;;18.75;100.00;101282.47;5017135;28;19975;-80
2022/08/17 09:56:31;;;;;;;;;;;;;;;18.71;100.00;101280.03;5016619;28;19920;-79
2022/08/17 09:58:56;;;;;;;;;;;;;;;18.70;100.00;101277.47;5001235;28;19925;-79
2022/08/17 10:01:35;;;;;;;;;;;;;;;18.66;100.00;101257.19;5018337;28;19971;-79
2022/08/17 10:04:22;;;;;;;;;;;;;;;18.53;100.00;101247.34;4984432;28;20283;-79
2022/08/17 10:06:51;;;;;;;;;;;;;;;18.43;100.00;101243.66;5020456;28;19924;-79
2022/08/17 10:09:23;;;;;;;;;;;;;;;18.36;100.00;101255.78;5015799;28;20399;-80
2022/08/17 10:14:38;;;;;;;;;;;;;;;18.36;100.00;101271.88;5004803;28;19921;-80
2022/08/17 10:17:04;;;;;;;;;;;;;;;18.34;100.00;101266.59;5002072;28;19924;-80
2022/08/17 10:19:32;;;;;;;;;;;;;;;18.38;100.00;101278.84;5020780;28;19932;-80
2022/08/17 10:27:41;;;;;;;;;;;;;;;18.43;100.00;101273.13;4988453;28;21270;-81
2022/08/17 10:30:07;;;;;;;;;;;;;;;18.43;100.00;101270.47;5017191;28;19929;-81
2022/08/17 10:32:39;;;;;;;;;;;;;;;18.46;100.00;101270.22;5020499;28;20328;-80
2022/08/17 10:35:17;;;;;;;;;;;;;;;18.51;100.00;101256.50;5002069;28;19920;-81
2022/08/17 10:37:46;;;;;;;;;;;;;;;18.57;100.00;101248.84;5001581;28;20432;-80
2022/08/17 10:40:23;;;;;;;;;;;;;;;18.67;100.00;101245.50;4987628;28;20024;-81
2022/08/17 10:42:49;;;;;;;;;;;;;;;18.76;100.00;101231.41;5020685;28;19924;-80
2022/08/17 10:45:16;;;;;;;;;;;;;;;18.84;100.00;101230.84;5006568;28;19925;-79
2022/08/17 10:47:52;;;;;;;;;;;;;;;18.94;100.00;101220.28;5017921;28;19928;-79
2022/08/17 10:50:36;;;;;;;;;;;;;;;18.99;100.00;101224.34;5016278;28;20322;-79
2022/08/17 10:53:02;;;;;;;;;;;;;;;19.01;100.00;101218.84;5020165;28;19925;-79
2022/08/17 10:55:30;;;;;;;;;;;;;;;19.04;100.00;101215.09;5020284;28;19921;-79
2022/08/17 10:58:15;;;;;;;;;;;;;;;19.02;100.00;101215.25;5019896;28;19967;-78
2022/08/17 11:00:41;;;;;;;;;;;;;;;19.00;100.00;101218.00;5015373;28;19920;-78
2022/08/17 11:03:18;;;;;;;;;;;;;;;19.00;100.00;101201.91;5020581;28;20404;-78
2022/08/17 11:05:49;;;;;;;;;;;;;;;18.99;100.00;101207.38;4989099;28;20224;-78
2022/08/17 11:08:22;;;;;;;;;;;;;;;18.94;100.00;101209.53;5018400;28;19944;-78
2022/08/17 11:10:47;;;;;;;;;;;;;;;18.93;100.00;101197.09;5020301;28;19932;-78
2022/08/17 11:13:22;;;;;;;;;;;;;;;18.90;100.00;101194.66;5020319;28;19925;-78
2022/08/17 11:15:50;;;;;;;;;;;;;;;18.90;100.00;101197.34;5019094;28;20667;-78
2022/08/17 11:18:18;;;;;;;;;;;;;;;18.92;100.00;101195.41;5017123;28;20371;-78
2022/08/17 11:20:51;;;;;;;;;;;;;;;18.98;100.00;101189.56;5017567;28;19944;-79
2022/08/17 11:23:27;;;;;;;;;;;;;;;19.06;100.00;101184.50;5012631;28;20403;-79
2022/08/17 11:25:56;;;;;;;;;;;;;;;19.16;100.00;101187.34;5006594;28;19921;-79
2022/08/17 11:28:34;;;;;;;;;;;;;;;19.24;100.00;101189.44;4997686;28;19951;-77
2022/08/17 11:31:21;;;;;;;;;;;;;;;19.32;100.00;101194.19;5017622;28;20581;-79
2022/08/17 11:33:51;;;;;;;;;;;;;;;19.42;100.00;101179.09;5023912;28;19947;-80
2022/08/17 11:36:25;;;;;;;;;;;;;;;19.50;100.00;101183.88;5021982;28;19921;-78
2022/08/17 11:38:57;;;;;;;;;;;;;;;19.56;100.00;101183.41;5001273;28;19928;-79
2022/08/17 11:41:26;;;;;;;;;;;;;;;19.64;100.00;101177.41;5000768;28;20120;-78
2022/08/17 11:44:09;;;;;;;;;;;;;;;19.70;100.00;101184.13;5019727;28;20015;-79
2022/08/17 11:52:37;;;;;;;;;;;;;;;19.81;100.00;101182.31;5006801;28;19924;-78
2022/08/17 11:55:03;;;;;;;;;;;;;;;19.83;100.00;101179.47;5023295;28;20036;-77
2022/08/17 11:57:28;;;;;;;;;;;;;;;19.89;100.00;101189.75;5023534;28;19928;-77
2022/08/17 11:59:55;;;;;;;;;;;;;;;19.92;100.00;101181.44;5023371;28;19991;-77
2022/08/17 12:02:30;;;;;;;;;;;;;;;19.98;100.00;101181.97;5024608;28;19960;-78
2022/08/17 12:05:16;;;;;;;;;;;;;;;20.01;100.00;101196.03;5019276;28;19977;-78
2022/08/17 12:07:46;;;;;;;;;;;;;;;20.06;100.00;101191.09;5003477;28;19939;-78
2022/08/17 12:10:16;;;;;;;;;;;;;;;20.08;100.00;101193.69;5004383;28;20023;-78
2022/08/17 12:12:45;;;;;;;;;;;;;;;20.07;100.00;101203.59;5019587;28;20027;-79
2022/08/17 12:15:18;;;;;;;;;;;;;;;20.06;100.00;101193.78;5004632;28;20185;-79
2022/08/17 12:17:51;;;;;;;;;;;;;;;20.08;100.00;101207.13;5001379;28;19920;-78
2022/08/17 12:20:23;;;;;;;;;;;;;;;20.08;100.00;101207.13;5022704;28;19925;-78
2022/08/17 12:22:56;;;;;;;;;;;;;;;20.12;100.00;101202.34;5005159;28;19925;-79
2022/08/17 12:25:44;;;;;;;;;;;;;;;20.15;100.00;101211.00;5022552;28;19917;-78
2022/08/17 12:28:28;;;;;;;;;;;;;;;20.18;100.00;101221.53;4992417;28;19932;-77
2022/08/17 12:30:59;;;;;;;;;;;;;;;20.22;100.00;101220.28;5018314;28;19924;-78
2022/08/17 12:33:27;;;;;;;;;;;;;;;20.27;100.00;101230.66;5003649;28;19931;-77
2022/08/17 12:36:03;;;;;;;;;;;;;;;20.34;100.00;101226.53;5022712;28;19920;-78
2022/08/17 12:38:33;;;;;;;;;;;;;;;20.38;100.00;101221.75;5021850;28;19921;-77
2022/08/17 12:41:24;;;;;;;;;;;;;;;20.43;100.00;101224.91;5004212;28;19967;-78
2022/08/17 12:43:53;;;;;;;;;;;;;;;20.48;100.00;101211.06;5022366;28;19970;-78
2022/08/17 12:46:18;;;;;;;;;;;;;;;20.49;100.00;101219.03;5023066;28;19956;-78
2022/08/17 12:48:44;;;;;;;;;;;;;;;20.53;100.00;101219.63;5020995;28;19929;-79
2022/08/17 12:51:10;;;;;;;;;;;;;;;20.57;100.00;101225.59;5022050;28;20024;-78
2022/08/17 12:53:35;;;;;;;;;;;;;;;20.60;100.00;101228.88;5003309;28;19920;-78
2022/08/17 12:56:01;;;;;;;;;;;;;;;20.59;100.00;101218.28;5008577;28;19921;-77
2022/08/17 12:58:30;;;;;;;;;;;;;;;20.62;100.00;101215.31;5003703;28;19927;-77
2022/08/17 13:01:00;;;;;;;;;;;;;;;20.61;100.00;101217.16;5021093;28;21604;-77
2022/08/17 13:03:30;;;;;;;;;;;;;;;20.60;100.00;101225.38;5040113;28;19959;-79
2022/08/17 13:06:09;;;;;;;;;;;;;;;20.55;100.00;101217.69;5040879;28;19924;-79
2022/08/17 13:08:41;;;;;;;;;;;;;;;20.53;100.00;101219.63;5035393;28;20512;-77